Time;durP1;ratioP1;P1;durP2;ratioP2;P2;SDS_P1;SDS_P2;PMS_P1;PMS_P2;Temp;Humidity;BMP_temperature;BMP_pressure;BME280_temperature;BME280_humidity;BME280_pressure;Samples;Min_cycle;Max_cycle;Signal;HPM_P1;HPM_P2
2022/06/09 00:01:16;;;;;;;0.82;0.70;;;;;;;16.50;100.00;99588.47;5051466;28;20043;-64
2022/06/09 00:03:50;;;;;;;2.13;0.85;;;;;;;16.50;100.00;99592.03;5051774;28;20033;-64
2022/06/09 00:06:17;;;;;;;2.13;1.10;;;;;;;16.51;100.00;99595.56;5051323;28;20053;-64
2022/06/09 00:08:50;;;;;;;2.20;0.70;;;;;;;16.51;100.00;99596.44;5037231;28;20116;-64
2022/06/09 00:11:19;;;;;;;1.55;0.80;;;;;;;16.55;100.00;99602.47;5031704;28;20029;-64
2022/06/09 00:13:45;;;;;;;1.30;0.60;;;;;;;16.56;100.00;99606.88;5030180;28;20033;-64
2022/06/09 00:16:11;;;;;;;4.00;1.10;;;;;;;16.57;100.00;99606.78;5031819;28;20117;-64
2022/06/09 00:18:37;;;;;;;1.10;0.80;;;;;;;16.56;100.00;99612.25;5052803;28;20048;-64
2022/06/09 00:21:03;;;;;;;1.48;1.10;;;;;;;16.49;100.00;99608.25;5029573;28;20530;-63
2022/06/09 00:23:29;;;;;;;2.47;1.08;;;;;;;16.56;100.00;99623.88;5029450;28;20021;-63
2022/06/09 00:25:55;;;;;;;2.88;0.80;;;;;;;16.54;100.00;99624.94;5029268;28;20038;-64
2022/06/09 00:28:20;;;;;;;4.13;1.17;;;;;;;16.60;100.00;99627.22;5031353;28;20079;-64
2022/06/09 00:30:46;;;;;;;2.25;1.23;;;;;;;16.64;100.00;99632.28;5051193;28;20530;-64
2022/06/09 00:33:12;;;;;;;2.40;0.90;;;;;;;16.60;100.00;99632.59;5051172;28;20028;-64
2022/06/09 00:35:38;;;;;;;3.75;0.90;;;;;;;16.61;100.00;99629.81;5051167;28;20028;-64
2022/06/09 00:38:04;;;;;;;2.13;1.00;;;;;;;16.61;100.00;99639.69;5041734;28;20033;-64
2022/06/09 00:40:29;;;;;;;3.75;1.05;;;;;;;16.59;100.00;99641.63;5031059;28;20032;-64
2022/06/09 00:42:55;;;;;;;1.73;1.15;;;;;;;16.61;100.00;99651.28;5031193;28;20512;-64
2022/06/09 00:45:33;;;;;;;3.10;1.02;;;;;;;16.60;100.00;99640.66;5031185;28;20101;-64
2022/06/09 00:48:02;;;;;;;3.92;1.23;;;;;;;16.64;100.00;99639.47;5031273;28;20025;-64
2022/06/09 00:50:30;;;;;;;1.38;1.02;;;;;;;16.63;100.00;99640.44;5031135;28;20060;-64
2022/06/09 00:53:00;;;;;;;2.58;1.42;;;;;;;16.68;100.00;99651.78;5030901;28;20473;-64
2022/06/09 00:55:31;;;;;;;1.58;1.10;;;;;;;16.63;100.00;99643.13;5031042;28;20021;-63
2022/06/09 00:58:07;;;;;;;0.73;0.65;;;;;;;16.70;100.00;99650.72;5046826;28;20032;-63
2022/06/09 01:00:55;;;;;;;3.13;1.10;;;;;;;16.69;100.00;99661.53;5050925;28;20036;-63
2022/06/09 01:03:25;;;;;;;2.72;0.98;;;;;;;16.71;100.00;99659.63;5050769;28;20049;-63
2022/06/09 01:05:54;;;;;;;3.75;1.10;;;;;;;16.75;100.00;99663.84;5050391;28;20048;-63
2022/06/09 01:08:19;;;;;;;6.00;1.25;;;;;;;16.78;100.00;99663.66;5039571;28;20488;-63
2022/06/09 01:10:45;;;;;;;4.68;1.50;;;;;;;16.76;100.00;99660.19;5030866;28;20026;-63
2022/06/09 01:13:10;;;;;;;3.30;2.08;;;;;;;16.76;100.00;99655.69;5030766;28;20477;-63
2022/06/09 01:15:47;;;;;;;4.25;2.17;;;;;;;16.77;100.00;99662.78;5030807;28;20068;-63
2022/06/09 01:18:52;;;;;;;4.30;2.20;;;;;;;16.79;100.00;99662.69;5064189;28;20032;-63
2022/06/09 01:21:50;;;;;;;2.47;1.60;;;;;;;16.81;100.00;99656.28;5070525;28;20060;-63
2022/06/09 01:24:33;;;;;;;3.22;1.80;;;;;;;16.84;100.00;99661.44;5070764;28;20029;-63
2022/06/09 01:27:07;;;;;;;2.40;1.38;;;;;;;16.87;100.00;99661.25;5070641;28;20146;-63
2022/06/09 01:30:03;;;;;;;6.22;1.30;;;;;;;16.89;100.00;99661.16;5070673;28;20128;-63
2022/06/09 01:32:42;;;;;;;3.25;1.30;;;;;;;16.89;100.00;99661.16;5070556;28;20052;-63
2022/06/09 01:35:21;;;;;;;2.17;1.20;;;;;;;16.86;100.00;99666.72;5062040;28;20021;-63
2022/06/09 01:37:51;;;;;;;2.47;1.33;;;;;;;16.82;100.00;99662.47;5030527;28;20496;-63
2022/06/09 01:40:18;;;;;;;4.05;1.25;;;;;;;16.82;100.00;99665.19;5030654;28;20017;-63
2022/06/09 01:42:47;;;;;;;1.55;1.13;;;;;;;16.82;100.00;99665.19;5030653;28;20029;-63
2022/06/09 01:45:22;;;;;;;1.55;1.00;;;;;;;16.80;100.00;99667.97;5030306;28;20038;-63
2022/06/09 01:48:05;;;;;;;4.30;1.70;;;;;;;16.79;100.00;99673.44;5030488;28;20029;-63
2022/06/09 01:50:59;;;;;;;1.90;1.30;;;;;;;16.76;100.00;99679.00;5030603;28;20025;-63
2022/06/09 01:53:30;;;;;;;2.00;1.10;;;;;;;16.74;100.00;99672.84;5033384;28;20473;-63
2022/06/09 01:56:06;;;;;;;2.72;2.00;;;;;;;16.74;100.00;99672.84;5036966;28;20021;-63
2022/06/09 01:58:40;;;;;;;1.65;0.93;;;;;;;16.69;100.00;99683.03;5053973;28;20028;-63
2022/06/09 02:01:08;;;;;;;3.05;1.30;;;;;;;16.69;100.00;99680.34;5054232;28;20110;-63
2022/06/09 02:03:39;;;;;;;1.92;1.20;;;;;;;16.65;100.00;99678.81;5054044;28;20031;-63
2022/06/09 02:06:06;;;;;;;5.43;1.33;;;;;;;16.59;100.00;99674.69;5053587;28;20045;-63
2022/06/09 02:08:35;;;;;;;2.08;1.13;;;;;;;16.54;100.00;99681.31;5040686;28;20124;-63
2022/06/09 02:11:07;;;;;;;3.05;1.27;;;;;;;16.55;100.00;99685.72;5034168;28;20033;-63
2022/06/09 02:13:39;;;;;;;3.85;1.20;;;;;;;16.51;100.00;99676.13;5033879;28;20040;-63
2022/06/09 02:16:08;;;;;;;3.10;1.48;;;;;;;16.63;100.00;99680.72;5034436;28;20040;-63
2022/06/09 02:18:41;;;;;;;1.33;1.10;;;;;;;16.68;100.00;99686.69;5073120;28;20150;-63
2022/06/09 02:21:19;;;;;;;1.23;1.10;;;;;;;16.70;100.00;99692.84;5074132;28;20017;-63
2022/06/09 02:23:47;;;;;;;2.58;1.42;;;;;;;16.70;100.00;99682.09;5072443;28;20036;-63
2022/06/09 02:26:13;;;;;;;4.53;1.27;;;;;;;16.68;100.00;99692.06;5034022;28;20036;-63
2022/06/09 02:28:39;;;;;;;2.33;1.10;;;;;;;16.59;100.00;99698.00;5034222;28;20033;-63
2022/06/09 02:31:04;;;;;;;4.15;1.13;;;;;;;16.56;100.00;99701.75;5035812;28;20020;-63
2022/06/09 02:33:30;;;;;;;3.13;1.42;;;;;;;16.51;100.00;99693.09;5051096;28;20028;-63
2022/06/09 02:35:55;;;;;;;2.88;1.17;;;;;;;16.53;100.00;99707.31;5051698;28;20510;-63
2022/06/09 02:38:21;;;;;;;3.83;1.20;;;;;;;16.50;100.00;99712.88;5039652;28;20024;-63
2022/06/09 02:40:48;;;;;;;4.38;1.40;;;;;;;16.46;100.00;99715.81;5031811;28;20057;-63
2022/06/09 02:43:13;;;;;;;1.10;0.90;;;;;;;16.42;100.00;99708.88;5032598;28;20472;-63
2022/06/09 02:45:40;;;;;;;1.80;0.93;;;;;;;16.40;100.00;99716.16;5031951;28;20029;-62
2022/06/09 02:48:06;;;;;;;18.20;2.50;;;;;;;16.39;100.00;99709.06;5032169;28;20113;-63
2022/06/09 02:50:34;;;;;;;2.95;1.27;;;;;;;16.37;100.00;99713.66;5032295;28;20452;-63
2022/06/09 02:52:59;;;;;;;4.05;1.17;;;;;;;16.33;100.00;99709.44;5031646;28;20108;-63
2022/06/09 02:55:25;;;;;;;5.20;1.50;;;;;;;16.31;100.00;99712.22;5031768;28;20436;-63
2022/06/09 02:57:50;;;;;;;3.80;1.40;;;;;;;16.35;100.00;99710.22;5031594;28;20487;-63
2022/06/09 03:00:16;;;;;;;2.05;1.15;;;;;;;16.37;100.00;99716.34;5041502;28;20021;-63
2022/06/09 03:02:49;;;;;;;1.70;1.08;;;;;;;16.34;100.00;99720.06;5051620;28;20476;-62
2022/06/09 03:05:16;;;;;;;7.13;1.80;;;;;;;16.32;100.00;99723.81;5051179;28;20060;-62
2022/06/09 03:07:41;;;;;;;4.10;1.48;;;;;;;16.33;100.00;99722.84;5045806;28;20091;-63
2022/06/09 03:10:07;;;;;;;2.15;1.38;;;;;;;16.35;100.00;99729.88;5032835;28;20477;-63
2022/06/09 03:12:32;;;;;;;4.22;1.38;;;;;;;16.34;100.00;99721.91;5032837;28;20037;-62
2022/06/09 03:14:58;;;;;;;4.07;1.80;;;;;;;16.39;100.00;99730.56;5032504;28;20454;-62
2022/06/09 03:17:25;;;;;;;3.78;1.40;;;;;;;16.35;100.00;99723.63;5052814;28;20024;-62
2022/06/09 03:19:51;;;;;;;3.80;1.60;;;;;;;16.40;100.00;99721.53;5072503;28;20048;-63
2022/06/09 03:22:17;;;;;;;2.17;1.30;;;;;;;16.34;100.00;99721.91;5072899;28;20056;-63
2022/06/09 03:24:43;;;;;;;5.28;1.58;;;;;;;16.32;100.00;99718.44;5072432;28;20016;-63
2022/06/09 03:27:09;;;;;;;5.53;1.50;;;;;;;16.29;100.00;99724.00;5072561;28;20036;-63
2022/06/09 03:29:34;;;;;;;7.93;1.63;;;;;;;16.27;100.00;99725.91;5061562;28;20783;-63
2022/06/09 03:32:00;;;;;;;5.00;1.30;;;;;;;16.36;100.00;99736.13;5042582;28;20484;-63
2022/06/09 03:34:26;;;;;;;5.18;1.52;;;;;;;16.36;100.00;99736.13;5034331;28;20021;-62
2022/06/09 03:36:51;;;;;;;4.00;1.35;;;;;;;16.44;100.00;99741.88;5032710;28;20025;-62
2022/06/09 03:39:16;;;;;;;3.97;1.13;;;;;;;16.41;100.00;99744.72;5032370;28;20040;-62
2022/06/09 03:41:42;;;;;;;5.65;1.25;;;;;;;16.36;100.00;99752.22;5032329;28;20048;-62
2022/06/09 03:44:07;;;;;;;4.20;1.48;;;;;;;16.33;100.00;99758.63;5032458;28;20029;-62
2022/06/09 03:46:33;;;;;;;3.47;1.30;;;;;;;16.24;100.00;99758.31;5032197;28;20029;-62
2022/06/09 03:48:59;;;;;;;6.15;1.58;;;;;;;16.14;100.00;99755.31;5031935;28;20096;-62
2022/06/09 03:51:24;;;;;;;5.03;1.40;;;;;;;16.07;100.00;99767.34;5030962;28;20133;-62
2022/06/09 03:53:50;;;;;;;10.73;1.48;;;;;;;16.06;100.00;99764.75;5033286;28;20033;-63
2022/06/09 03:56:19;;;;;;;3.20;1.20;;;;;;;16.00;100.00;99759.75;5051333;28;20017;-62
2022/06/09 03:58:48;;;;;;;3.00;1.10;;;;;;;16.05;100.00;99773.75;5050951;28;20035;-62
2022/06/09 04:01:17;;;;;;;4.13;1.23;;;;;;;16.00;100.00;99765.97;5052002;28;20105;-62
2022/06/09 04:03:44;;;;;;;3.10;1.38;;;;;;;16.11;100.00;99778.78;5051584;28;20025;-62
2022/06/09 04:06:15;;;;;;;3.33;1.30;;;;;;;16.18;100.00;99783.69;5051588;28;20132;-62
2022/06/09 04:08:41;;;;;;;4.35;1.48;;;;;;;16.24;100.00;99775.28;5037754;28;20076;-62
2022/06/09 04:11:06;;;;;;;4.10;1.42;;;;;;;16.25;100.00;99790.41;5031996;28;20048;-62
2022/06/09 04:13:31;;;;;;;3.03;1.40;;;;;;;16.26;100.00;99788.63;5031716;28;20029;-62
2022/06/09 04:15:57;;;;;;;3.95;1.35;;;;;;;16.23;100.00;99783.41;5031284;28;20132;-62
2022/06/09 04:18:22;;;;;;;4.93;2.17;;;;;;;16.22;100.00;99784.38;5067758;28;20028;-62
2022/06/09 04:20:48;;;;;;;1.58;1.17;;;;;;;16.15;100.00;99781.19;5059238;28;20507;-62
2022/06/09 04:23:13;;;;;;;3.35;1.45;;;;;;;16.19;100.00;99797.97;5031504;28;20029;-62
2022/06/09 04:25:39;;;;;;;3.42;1.35;;;;;;;16.18;100.00;99801.59;5046088;28;20043;-62
2022/06/09 04:28:05;;;;;;;4.50;1.50;;;;;;;16.24;100.00;99803.94;5046173;28;20468;-62
2022/06/09 04:30:30;;;;;;;3.50;1.63;;;;;;;16.28;100.00;99808.16;5051315;28;20033;-62
2022/06/09 04:32:57;;;;;;;4.07;1.30;;;;;;;16.26;100.00;99805.56;5051493;28;20024;-62
2022/06/09 04:35:23;;;;;;;5.40;1.48;;;;;;;16.26;100.00;99812.78;5051275;28;20020;-62
2022/06/09 04:38:01;;;;;;;2.92;1.17;;;;;;;16.25;100.00;99808.34;5044149;28;20396;-62
2022/06/09 04:40:29;;;;;;;3.40;1.27;;;;;;;16.21;100.00;99812.16;5031115;28;20033;-62
2022/06/09 04:42:55;;;;;;;4.60;1.33;;;;;;;16.21;100.00;99820.22;5031344;28;20029;-62
2022/06/09 04:45:21;;;;;;;2.15;1.30;;;;;;;16.19;100.00;99819.44;5031032;28;20436;-62
2022/06/09 04:47:46;;;;;;;3.97;1.55;;;;;;;16.19;100.00;99830.19;5030748;28;20041;-62
2022/06/09 04:50:13;;;;;;;3.25;2.15;;;;;;;16.15;100.00;99826.81;5030745;28;20381;-62
2022/06/09 04:52:39;;;;;;;2.78;1.40;;;;;;;16.21;100.00;99830.97;5030968;28;20071;-62
2022/06/09 04:55:06;;;;;;;3.03;1.15;;;;;;;16.29;100.00;99831.38;5030989;28;20032;-62
2022/06/09 04:57:31;;;;;;;2.28;1.00;;;;;;;16.30;100.00;99836.66;5030880;28;20044;-62
2022/06/09 04:59:56;;;;;;;5.78;1.60;;;;;;;16.27;100.00;99841.31;5031178;28;20420;-62
2022/06/09 05:02:22;;;;;;;5.30;2.63;;;;;;;16.23;100.00;99842.44;5030445;28;20025;-62
2022/06/09 05:04:47;;;;;;;5.13;1.52;;;;;;;16.37;100.00;99851.44;5029171;28;20028;-62
2022/06/09 05:07:13;;;;;;;3.42;1.27;;;;;;;16.43;100.00;99858.25;5031601;28;20124;-62
2022/06/09 05:09:38;;;;;;;3.22;1.10;;;;;;;16.46;100.00;99845.56;5048975;28;20126;-62
2022/06/09 05:12:04;;;;;;;2.97;1.02;;;;;;;16.48;100.00;99858.88;5049397;28;20110;-62
2022/06/09 05:14:30;;;;;;;3.95;1.30;;;;;;;16.47;100.00;99852.69;5049366;28;20040;-62
2022/06/09 05:16:55;;;;;;;3.17;1.38;;;;;;;16.59;100.00;99861.81;5049355;28;20057;-62
2022/06/09 05:19:20;;;;;;;5.57;2.65;;;;;;;16.70;100.00;99859.34;5050762;28;20098;-62
2022/06/09 05:21:46;;;;;;;3.67;1.50;;;;;;;16.80;100.00;99865.91;5050571;28;20074;-62
2022/06/09 05:24:13;;;;;;;3.95;1.17;;;;;;;16.83;100.00;99868.41;5050641;28;20646;-62
2022/06/09 05:26:38;;;;;;;2.72;1.10;;;;;;;16.92;100.00;99863.31;5041763;28;20104;-62
2022/06/09 05:29:04;;;;;;;2.55;1.30;;;;;;;16.95;100.00;99868.50;5034755;28;20056;-62
2022/06/09 05:31:29;;;;;;;2.72;1.33;;;;;;;17.07;100.00;99865.09;5034534;28;20086;-62
2022/06/09 05:33:55;;;;;;;5.13;1.40;;;;;;;17.10;99.87;99869.38;5035037;28;20469;-62
2022/06/09 05:36:20;;;;;;;2.95;1.20;;;;;;;17.13;98.32;99875.44;5034591;28;20026;-63
2022/06/09 05:47:03;;;;;;;5.57;1.30;;;;;;;17.60;97.29;99877.91;5034388;28;20368;-62
2022/06/09 05:49:30;;;;;;;3.92;1.08;;;;;;;17.63;95.54;99879.53;5034435;28;20033;-62
2022/06/09 05:51:56;;;;;;;5.07;1.10;;;;;;;17.72;96.32;99879.81;5041527;28;21211;-62
2022/06/09 05:54:21;;;;;;;4.10;1.25;;;;;;;17.66;93.92;99890.94;5038231;28;20025;-62
2022/06/09 05:56:47;;;;;;;3.88;1.42;;;;;;;17.72;94.58;99882.50;5049903;28;20469;-62
2022/06/09 05:59:13;;;;;;;7.60;1.30;;;;;;;17.84;94.62;99889.78;5036765;28;20025;-62
2022/06/09 06:01:38;;;;;;;4.85;1.35;;;;;;;17.90;94.12;99893.91;5049692;28;20388;-62
2022/06/09 06:04:06;;;;;;;6.43;1.00;;;;;;;17.92;91.28;99892.84;5052615;28;20025;-62
2022/06/09 06:06:34;;;;;;;6.00;1.20;;;;;;;18.01;91.91;99892.25;5051927;28;20067;-62
2022/06/09 06:09:08;;;;;;;5.00;1.27;;;;;;;18.16;90.78;99902.03;5036154;28;20041;-62
2022/06/09 06:11:36;;;;;;;5.32;1.27;;;;;;;18.29;92.12;99902.09;5041976;28;20052;-62
2022/06/09 06:14:04;;;;;;;2.20;1.02;;;;;;;18.29;91.16;99897.56;5032157;28;20033;-62
2022/06/09 06:16:29;;;;;;;4.50;1.13;;;;;;;18.25;90.24;99895.19;5041410;28;20083;-62
2022/06/09 06:18:55;;;;;;;2.70;1.35;;;;;;;18.44;90.74;99905.63;5053482;28;20037;-62
2022/06/09 06:21:21;;;;;;;2.00;1.10;;;;;;;18.53;89.42;99902.34;5031903;28;20775;-62
2022/06/09 06:23:48;;;;;;;4.97;1.08;;;;;;;18.64;88.75;99910.56;5035595;28;20073;-62
2022/06/09 06:26:14;;;;;;;5.50;1.10;;;;;;;18.90;89.68;99904.25;5048545;28;20116;-62
2022/06/09 06:28:39;;;;;;;5.40;1.20;;;;;;;18.97;87.22;99910.97;5051804;28;20112;-62
2022/06/09 06:31:05;;;;;;;5.72;1.20;;;;;;;19.12;87.69;99921.56;5037001;28;20435;-62
2022/06/09 06:33:30;;;;;;;5.97;0.93;;;;;;;19.12;86.11;99926.97;5050727;28;20096;-62
2022/06/09 06:35:56;;;;;;;5.18;1.10;;;;;;;19.14;85.75;99913.38;5031503;28;20113;-62
2022/06/09 06:38:22;;;;;;;7.13;1.52;;;;;;;19.19;85.93;99922.00;5037637;28;20507;-63
2022/06/09 06:40:48;;;;;;;4.13;1.17;;;;;;;19.29;85.32;99925.84;5031694;28;20025;-63
2022/06/09 06:43:14;;;;;;;3.08;1.15;;;;;;;19.33;85.32;99930.03;5031097;28;20030;-63
2022/06/09 06:45:40;;;;;;;4.00;1.20;;;;;;;19.23;85.44;99934.31;5039171;28;20039;-63
2022/06/09 06:48:05;;;;;;;7.97;1.52;;;;;;;19.33;85.31;99938.13;5047373;28;20029;-63
2022/06/09 06:50:31;;;;;;;4.68;1.15;;;;;;;19.39;85.26;99924.19;5030984;28;20029;-63
2022/06/09 06:52:57;;;;;;;3.45;1.02;;;;;;;19.45;84.26;99934.56;5031346;28;20445;-63
2022/06/09 06:55:22;;;;;;;5.90;1.50;;;;;;;19.69;85.18;99938.22;5032634;28;20060;-63
2022/06/09 06:57:48;;;;;;;6.28;1.42;;;;;;;19.82;83.24;99944.47;5032908;28;20033;-63
2022/06/09 07:00:18;;;;;;;6.93;1.30;;;;;;;19.76;80.91;99944.94;5033234;28;20425;-63
2022/06/09 07:02:45;;;;;;;3.30;1.40;;;;;;;19.81;81.26;99944.59;5036148;28;20066;-63
2022/06/09 07:05:11;;;;;;;4.53;1.63;;;;;;;20.05;82.95;99949.09;5045307;28;20045;-63
2022/06/09 07:07:39;;;;;;;5.53;1.30;;;;;;;20.10;80.27;99949.63;5044039;28;20504;-63
2022/06/09 07:10:05;;;;;;;3.53;1.20;;;;;;;20.17;81.63;99950.94;5031416;28;20038;-63
2022/06/09 07:12:31;;;;;;;3.72;1.48;;;;;;;20.43;81.49;99951.72;5034734;28;20108;-63
2022/06/09 07:14:57;;;;;;;2.15;1.10;;;;;;;20.69;79.16;99942.56;5050440;28;20083;-63
2022/06/09 07:17:23;;;;;;;2.55;1.13;;;;;;;20.48;76.68;99961.22;5059514;28;20024;-63
2022/06/09 07:19:49;;;;;;;6.03;1.13;;;;;;;20.36;76.68;99959.41;5048453;28;20056;-63
2022/06/09 07:22:14;;;;;;;6.18;1.52;;;;;;;20.64;78.46;99961.81;5035785;28;20021;-63
2022/06/09 07:24:40;;;;;;;6.15;1.17;;;;;;;21.14;78.38;99966.13;5032067;28;20043;-63
2022/06/09 07:27:05;;;;;;;3.13;1.40;;;;;;;21.32;72.70;99959.31;5048177;28;20037;-63
2022/06/09 07:29:32;;;;;;;5.35;1.27;;;;;;;21.25;72.34;99957.22;5031669;28;20030;-63
2022/06/09 07:31:58;;;;;;;4.00;1.42;;;;;;;21.13;72.35;99963.56;5030088;28;20061;-63
2022/06/09 07:34:23;;;;;;;3.95;1.42;;;;;;;20.99;72.46;99967.31;5033387;28;20488;-63
2022/06/09 07:36:49;;;;;;;3.45;1.15;;;;;;;20.91;73.36;99969.69;5040131;28;20082;-63
2022/06/09 07:39:14;;;;;;;4.03;1.63;;;;;;;20.89;74.07;99967.09;5036364;28;20017;-63
2022/06/09 07:41:40;;;;;;;3.63;1.20;;;;;;;20.55;74.11;99973.31;5047555;28;20039;-63
2022/06/09 07:44:08;;;;;;;3.72;1.48;;;;;;;20.18;75.07;99974.28;5049413;28;20032;-63
2022/06/09 07:46:34;;;;;;;4.05;1.40;;;;;;;19.82;76.04;99968.78;5049196;28;20028;-63
2022/06/09 07:49:00;;;;;;;3.72;1.27;;;;;;;19.76;77.58;99976.44;5048028;28;20045;-63
2022/06/09 07:51:28;;;;;;;4.07;1.40;;;;;;;20.14;78.45;99983.56;5050557;28;20516;-63
2022/06/09 07:53:54;;;;;;;3.47;1.38;;;;;;;20.74;75.09;99979.06;5050965;28;20032;-63
2022/06/09 07:56:20;;;;;;;2.60;1.00;;;;;;;21.45;68.91;99983.59;5050445;28;20423;-63
2022/06/09 07:58:46;;;;;;;7.15;1.55;;;;;;;21.64;68.37;99984.75;5051029;28;20028;-63
2022/06/09 08:01:12;;;;;;;2.38;1.00;;;;;;;21.93;66.36;99988.75;5050567;28;20052;-63
2022/06/09 08:03:40;;;;;;;4.57;1.15;;;;;;;22.55;64.11;99986.44;5050182;28;20383;-63
2022/06/09 08:06:07;;;;;;;3.08;1.10;;;;;;;22.97;64.67;99990.13;5049988;28;20055;-63
2022/06/09 08:08:33;;;;;;;2.05;0.90;;;;;;;23.14;62.56;99985.03;5037373;28;20415;-63
2022/06/09 08:10:59;;;;;;;4.40;1.00;;;;;;;22.70;62.89;99985.13;5033793;28;20025;-63
2022/06/09 08:13:24;;;;;;;3.42;0.93;;;;;;;22.30;63.29;99983.09;5031658;28;20028;-63
2022/06/09 08:15:50;;;;;;;7.07;1.10;;;;;;;22.05;65.93;99992.31;5031958;28;20025;-63
2022/06/09 08:18:15;;;;;;;8.77;3.05;;;;;;;22.42;63.52;99985.66;5065718;28;20021;-64
2022/06/09 08:20:43;;;;;;;6.03;1.60;;;;;;;23.20;61.99;99983.63;5034395;28;20029;-62
2022/06/09 08:23:17;;;;;;;3.70;1.10;;;;;;;24.02;60.51;99977.38;5031118;28;20108;-62
2022/06/09 08:25:44;;;;;;;4.65;1.00;;;;;;;23.95;58.25;99987.03;5029830;28;20064;-62
2022/06/09 08:28:11;;;;;;;2.13;0.80;;;;;;;23.39;57.35;99990.09;5029526;28;20029;-62
2022/06/09 08:30:36;;;;;;;4.25;1.25;;;;;;;22.56;60.33;99993.56;5041455;28;20039;-62
2022/06/09 08:33:03;;;;;;;4.57;1.50;;;;;;;21.96;61.05;99988.50;5049407;28;20697;-61
2022/06/09 08:35:29;;;;;;;6.03;2.40;;;;;;;21.72;65.79;99995.84;5049837;28;20029;-61
2022/06/09 08:37:55;;;;;;;4.93;1.70;;;;;;;21.71;67.67;100002.22;5041875;28;20032;-61
2022/06/09 08:40:26;;;;;;;2.65;1.00;;;;;;;22.13;65.96;99995.28;5031259;28;20045;-61
2022/06/09 08:43:00;;;;;;;5.47;1.33;;;;;;;22.99;63.38;100002.59;5040586;28;20548;-61
2022/06/09 08:45:34;;;;;;;3.03;1.15;;;;;;;23.58;58.38;99996.66;5051140;28;20067;-61
2022/06/09 08:48:02;;;;;;;2.72;1.23;;;;;;;24.00;60.10;99993.81;5051009;28;20090;-61
2022/06/09 08:50:31;;;;;;;6.70;0.90;;;;;;;24.20;54.45;99997.50;5049616;28;20059;-61
2022/06/09 08:52:59;;;;;;;4.40;1.10;;;;;;;24.04;55.87;99998.00;5049482;28;20021;-61
2022/06/09 08:55:34;;;;;;;1.67;0.90;;;;;;;24.23;58.07;100005.38;5050181;28;20024;-61
2022/06/09 08:58:11;;;;;;;4.30;1.08;;;;;;;24.69;54.83;100005.72;5049626;28;20510;-62
2022/06/09 09:00:41;;;;;;;3.08;1.20;;;;;;;24.51;54.67;100001.91;5049419;28;20108;-62
2022/06/09 09:03:16;;;;;;;4.18;1.70;;;;;;;24.75;55.82;100016.03;5048988;28;20479;-62
2022/06/09 09:05:52;;;;;;;8.00;1.35;;;;;;;24.93;53.50;100008.91;5050468;28;20060;-62
2022/06/09 09:08:18;;;;;;;4.63;2.40;;;;;;;24.40;53.34;100021.03;5039578;28;20059;-62
2022/06/09 09:11:10;;;;;;;11.68;3.20;;;;;;;23.69;54.06;100024.59;5031045;28;20033;-62
2022/06/09 09:13:50;;;;;;;5.10;1.48;;;;;;;24.14;54.35;100011.63;5030948;28;20476;-62
2022/06/09 09:16:43;;;;;;;4.05;1.00;;;;;;;24.80;53.95;100010.16;5032504;28;20100;-62
2022/06/09 09:19:51;;;;;;;1.38;0.82;;;;;;;25.14;52.65;100011.53;5069751;28;20031;-62
2022/06/09 09:22:35;;;;;;;2.28;0.82;;;;;;;25.36;50.51;100016.72;5068847;28;20495;-62
2022/06/09 09:25:16;;;;;;;2.85;1.23;;;;;;;25.79;51.12;100018.00;5068924;28;20039;-62
2022/06/09 09:27:41;;;;;;;1.63;0.52;;;;;;;26.10;47.85;100024.13;5053222;28;20079;-62
2022/06/09 09:30:20;;;;;;;6.35;0.80;;;;;;;25.66;47.08;100025.63;5029032;28;20033;-62
2022/06/09 09:32:54;;;;;;;2.03;0.60;;;;;;;25.96;48.36;100019.94;5028802;28;20480;-62
2022/06/09 09:35:22;;;;;;;1.52;0.50;;;;;;;26.01;47.65;100019.56;5030127;28;20475;-63
2022/06/09 09:37:53;;;;;;;1.58;0.70;;;;;;;25.67;49.53;100021.00;5030776;28;20037;-63
2022/06/09 09:40:25;;;;;;;1.85;0.90;;;;;;;25.62;47.60;100028.75;5029655;28;20060;-63
2022/06/09 09:42:54;;;;;;;6.28;0.75;;;;;;;25.86;47.82;100035.47;5028691;28;20029;-63
2022/06/09 09:45:42;;;;;;;4.55;0.80;;;;;;;25.97;48.76;100029.00;5028585;28;20029;-63
2022/06/09 09:48:17;;;;;;;1.70;0.50;;;;;;;26.40;46.02;100036.66;5028392;28;20045;-63
2022/06/09 09:51:04;;;;;;;4.20;0.60;;;;;;;26.34;46.83;100031.78;5028819;28;20026;-64
2022/06/09 09:53:33;;;;;;;2.15;0.75;;;;;;;25.95;47.25;100048.22;5028582;28;20037;-64
2022/06/09 09:56:05;;;;;;;4.22;0.73;;;;;;;26.49;48.65;100044.78;5039578;28;20024;-64
2022/06/09 09:58:53;;;;;;;4.90;0.90;;;;;;;26.48;49.42;100042.22;5050464;28;20531;-64
2022/06/09 10:01:25;;;;;;;4.25;0.93;;;;;;;25.57;49.99;100053.72;5050482;28;20439;-63
2022/06/09 10:09:42;;;;;;;1.10;0.45;;;;;;;24.70;51.62;100056.41;5030395;28;20102;-63
2022/06/09 10:12:29;;;;;;;1.08;0.50;;;;;;;24.15;49.75;100046.81;5032728;28;20026;-63
2022/06/09 10:15:10;;;;;;;1.63;0.50;;;;;;;24.27;50.34;100051.19;5033739;28;20076;-63
2022/06/09 10:18:02;;;;;;;5.45;0.80;;;;;;;25.08;48.94;100051.06;5057370;28;20090;-63
2022/06/09 10:21:01;;;;;;;5.07;1.20;;;;;;;25.78;48.98;100053.56;5073858;28;20020;-63
2022/06/09 10:23:45;;;;;;;2.40;0.70;;;;;;;26.59;46.12;100042.03;5073655;28;20033;-63
2022/06/09 10:26:43;;;;;;;4.22;1.65;;;;;;;27.29;47.57;100047.69;5069467;28;20044;-64
2022/06/09 10:29:33;;;;;;;4.68;0.80;;;;;;;26.81;45.50;100049.84;5033055;28;20049;-64
2022/06/09 10:32:18;;;;;;;3.65;0.70;;;;;;;26.20;49.15;100056.81;5031720;28;20416;-63
2022/06/09 10:34:50;;;;;;;6.00;0.82;;;;;;;25.30;47.62;100066.28;5039946;28;20029;-63
2022/06/09 10:37:21;;;;;;;3.40;1.20;;;;;;;25.13;50.88;100054.22;5048740;28;20476;-63
2022/06/09 10:40:19;;;;;;;2.35;0.70;;;;;;;25.50;51.51;100054.44;5031205;28;20109;-63
2022/06/09 10:43:03;;;;;;;2.00;0.70;;;;;;;26.49;49.03;100052.13;5031849;28;20041;-64
2022/06/09 10:45:35;;;;;;;1.73;0.45;;;;;;;27.07;47.21;100048.97;5032575;28;20085;-64
2022/06/09 10:57:11;;;;;;;2.17;0.75;;;;;;;27.77;42.29;100048.16;5033578;28;20087;-64
2022/06/09 10:59:50;;;;;;;1.70;0.55;;;;;;;27.81;43.43;100049.56;5033100;28;20155;-64
2022/06/09 11:02:21;;;;;;;3.30;0.68;;;;;;;27.98;41.41;100051.44;5033360;28;20119;-64
2022/06/09 11:04:49;;;;;;;2.00;0.50;;;;;;;28.39;42.69;100050.69;5039736;28;20103;-65
2022/06/09 11:07:36;;;;;;;2.50;0.40;;;;;;;28.89;41.77;100041.72;5033927;28;20501;-65
2022/06/09 11:10:36;;;;;;;2.65;0.60;;;;;;;27.50;41.61;100070.13;5033040;28;20493;-64
2022/06/09 11:13:04;;;;;;;1.95;1.30;;;;;;;25.85;44.71;100074.63;5031852;28;20143;-64
2022/06/09 11:15:34;;;;;;;2.10;0.65;;;;;;;24.22;49.74;100060.72;5032830;28;20520;-63
2022/06/09 11:18:42;;;;;;;2.00;0.80;;;;;;;23.37;58.72;100083.53;5062993;28;20105;-63
2022/06/09 11:21:25;;;;;;;4.97;1.02;;;;;;;22.37;66.31;100081.91;5072803;28;20025;-63
2022/06/09 11:23:57;;;;;;;5.38;1.58;;;;;;;21.80;70.77;100085.50;5072535;28;20038;-63
2022/06/09 11:26:28;;;;;;;5.03;1.23;;;;;;;21.08;77.19;100084.75;5072554;28;20145;-63
2022/06/09 11:29:30;;;;;;;5.65;1.55;;;;;;;20.66;78.30;100095.03;5072551;28;20416;-63
2022/06/09 11:32:28;;;;;;;4.15;1.20;;;;;;;20.72;78.95;100089.16;5072394;28;20502;-63
2022/06/09 11:35:02;;;;;;;3.35;1.45;;;;;;;20.81;79.98;100093.91;5072545;28;20029;-63
2022/06/09 11:37:31;;;;;;;6.13;1.48;;;;;;;20.95;81.36;100091.03;5035346;28;20071;-63
2022/06/09 11:40:14;;;;;;;3.97;1.40;;;;;;;21.08;81.06;100090.16;5032415;28;20025;-63
2022/06/09 11:42:51;;;;;;;4.15;1.48;;;;;;;21.32;80.70;100088.31;5032439;28;20028;-63
2022/06/09 11:45:36;;;;;;;3.50;1.40;;;;;;;21.33;79.29;100090.06;5032156;28;20033;-63
2022/06/09 11:48:06;;;;;;;3.47;1.30;;;;;;;21.43;80.75;100097.38;5032220;28;20037;-63
2022/06/09 11:50:43;;;;;;;4.47;1.30;;;;;;;21.60;78.67;100083.41;5032020;28;20036;-63
2022/06/09 11:53:18;;;;;;;7.07;1.67;;;;;;;21.73;79.06;100084.19;5032525;28;20017;-63
2022/06/09 11:56:02;;;;;;;4.32;1.20;;;;;;;21.75;79.06;100081.38;5031842;28;20057;-63
2022/06/09 11:58:34;;;;;;;2.63;1.17;;;;;;;21.88;78.50;100084.88;5032067;28;20025;-63
2022/06/09 12:01:19;;;;;;;5.20;1.48;;;;;;;21.88;75.82;100098.44;5031762;28;20033;-63
2022/06/09 12:04:26;;;;;;;4.00;1.42;;;;;;;21.71;74.47;100091.56;5036811;28;20044;-63
2022/06/09 12:07:42;;;;;;;7.75;1.48;;;;;;;21.77;76.68;100096.56;5049038;28;20049;-63